Time;durP1;ratioP1;P1;durP2;ratioP2;P2;SDS_P1;SDS_P2;PMS_P1;PMS_P2;Temp;Humidity;BMP_temperature;BMP_pressure;BME280_temperature;BME280_humidity;BME280_pressure;Samples;Min_cycle;Max_cycle;Signal;HPM_P1;HPM_P2
2021/01/26 00:00:44;;;;;;;21.27;9.65;;;;;;;4.09;73.36;99487.13;4934828;29;20127;-75
2021/01/26 00:03:10;;;;;;;14.20;10.00;;;;;;;4.30;73.63;99527.25;4934442;29;20089;-70
2021/01/26 00:05:36;;;;;;;11.73;8.10;;;;;;;4.28;73.24;99534.00;4933839;29;20032;-73
2021/01/26 00:08:01;;;;;;;11.07;7.07;;;;;;;4.41;73.92;99540.53;4934472;29;20032;-69
2021/01/26 00:10:27;;;;;;;13.50;7.15;;;;;;;4.27;74.79;99535.66;4934774;29;20043;-69
2021/01/26 00:12:52;;;;;;;10.65;7.18;;;;;;;4.21;74.71;99537.91;4934454;29;20024;-74
2021/01/26 00:15:18;;;;;;;14.20;9.48;;;;;;;4.28;74.76;99529.75;4934689;29;20090;-74
2021/01/26 00:17:43;;;;;;;10.70;7.43;;;;;;;4.44;74.31;99533.03;4934199;29;20055;-71
2021/01/26 00:20:14;;;;;;;15.68;8.52;;;;;;;4.36;74.33;99478.97;4934262;29;20059;-73
2021/01/26 00:22:40;;;;;;;26.73;13.00;;;;;;;4.61;74.26;99501.44;4934542;29;20042;-70
2021/01/26 00:25:07;;;;;;;13.57;7.97;;;;;;;4.75;73.94;99490.94;4934314;29;20078;-71
2021/01/26 00:27:33;;;;;;;9.80;7.30;;;;;;;4.88;73.64;99495.78;4934388;29;20028;-69
2021/01/26 00:29:58;;;;;;;10.48;6.85;;;;;;;4.96;73.53;99488.44;4934134;29;20027;-69
2021/01/26 00:32:24;;;;;;;10.60;6.50;;;;;;;4.85;73.31;99459.88;4934204;29;20027;-73
2021/01/26 00:34:49;;;;;;;9.10;6.80;;;;;;;4.84;73.80;99488.81;4933640;29;20090;-71
2021/01/26 00:37:15;;;;;;;12.05;6.85;;;;;;;4.91;73.97;99483.16;4934436;29;20086;-69
2021/01/26 00:39:40;;;;;;;9.25;6.32;;;;;;;5.04;73.71;99491.38;4933996;29;20059;-69
2021/01/26 00:42:06;;;;;;;10.10;6.45;;;;;;;5.00;74.45;99480.13;4933086;29;20175;-71
2021/01/26 00:44:32;;;;;;;11.63;6.85;;;;;;;5.13;74.42;99484.06;4948594;29;20059;-69
2021/01/26 00:46:57;;;;;;;11.15;7.00;;;;;;;5.11;74.75;99489.13;4934267;29;20023;-70
2021/01/26 00:49:22;;;;;;;12.70;7.20;;;;;;;5.15;75.09;99478.22;4933940;29;20035;-72
2021/01/26 00:51:48;;;;;;;12.20;7.43;;;;;;;5.09;74.59;99469.41;4934120;29;20379;-69
2021/01/26 00:54:13;;;;;;;12.98;7.60;;;;;;;4.96;74.74;99485.88;4934114;29;20039;-69
2021/01/26 00:56:39;;;;;;;104.07;31.85;;;;;;;4.43;73.51;99491.25;4934015;29;20035;-74
2021/01/26 00:59:04;;;;;;;110.82;34.03;;;;;;;4.04;75.01;99502.25;4933999;29;20038;-72
2021/01/26 01:01:30;;;;;;;88.70;28.73;;;;;;;3.80;75.58;99473.88;4934025;29;20032;-72
2021/01/26 01:03:55;;;;;;;22.47;10.50;;;;;;;3.96;76.38;99478.03;4933732;29;20090;-76
2021/01/26 01:06:20;;;;;;;59.55;23.17;;;;;;;3.78;76.74;99479.72;4933731;29;20480;-69
2021/01/26 01:08:46;;;;;;;44.80;19.27;;;;;;;3.98;76.82;99486.63;4934249;29;20514;-71
2021/01/26 01:11:11;;;;;;;29.52;14.73;;;;;;;4.04;76.55;99483.50;4963691;28;20036;-72
2021/01/26 01:13:37;;;;;;;21.20;9.90;;;;;;;4.12;76.39;99476.19;4934143;29;20532;-72
2021/01/26 01:16:03;;;;;;;30.53;14.17;;;;;;;4.23;76.35;99466.47;4933597;29;20028;-69
2021/01/26 01:18:29;;;;;;;15.67;9.07;;;;;;;4.34;75.94;99467.84;4933186;29;20111;-71
2021/01/26 01:20:54;;;;;;;22.15;8.80;;;;;;;4.38;75.87;99469.72;4933469;29;20485;-69
2021/01/26 01:23:20;;;;;;;27.93;20.43;;;;;;;4.41;75.66;99469.88;4933855;29;20028;-73
2021/01/26 01:25:46;;;;;;;21.15;10.35;;;;;;;4.38;75.72;99467.16;4933687;29;20035;-71
2021/01/26 01:28:11;;;;;;;15.35;8.65;;;;;;;4.26;75.46;99447.06;4933661;29;20032;-72
2021/01/26 01:30:37;;;;;;;10.60;7.03;;;;;;;4.42;75.88;99465.63;4933842;29;20039;-73
2021/01/26 01:33:05;;;;;;;11.57;7.40;;;;;;;4.44;75.64;99464.88;4933602;29;20040;-69
2021/01/26 01:35:30;;;;;;;11.95;8.18;;;;;;;4.51;75.25;99448.13;4933476;29;20490;-69
2021/01/26 01:37:56;;;;;;;12.45;7.90;;;;;;;4.51;75.05;99446.47;4933663;29;20042;-69
2021/01/26 01:40:32;;;;;;;16.85;8.50;;;;;;;4.50;75.30;99439.59;4933516;29;20058;-76
2021/01/26 01:42:57;;;;;;;15.43;8.27;;;;;;;4.57;75.21;99442.44;4934613;29;20040;-71
2021/01/26 01:45:25;;;;;;;28.77;12.05;;;;;;;4.54;75.14;99417.63;4937266;29;20110;-73
2021/01/26 01:47:58;;;;;;;89.68;31.38;;;;;;;4.68;74.89;99431.00;4937269;29;20035;-70
2021/01/26 01:50:29;;;;;;;138.07;44.15;;;;;;;4.74;74.30;99426.16;4951885;29;20027;-74
2021/01/26 01:53:04;;;;;;;60.35;20.30;;;;;;;4.78;73.98;99406.72;4937215;29;20167;-72
2021/01/26 01:55:33;;;;;;;61.65;23.02;;;;;;;4.68;74.22;99411.41;4937007;29;20026;-70
2021/01/26 01:58:16;;;;;;;40.50;14.13;;;;;;;4.60;74.45;99409.31;4936739;29;20482;-70
2021/01/26 02:00:43;;;;;;;22.55;10.63;;;;;;;4.49;75.02;99402.06;4936891;29;20024;-72
2021/01/26 02:03:15;;;;;;;65.05;26.55;;;;;;;4.48;75.21;99386.69;4936801;29;20411;-73
2021/01/26 02:05:41;;;;;;;562.72;211.95;;;;;;;4.37;75.55;99384.53;4936825;29;20036;-74
2021/01/26 02:08:16;;;;;;;229.85;74.53;;;;;;;4.48;75.91;99396.91;4951427;29;20038;-72
2021/01/26 02:10:43;;;;;;;58.80;21.35;;;;;;;4.48;75.69;99379.88;4936299;29;20035;-76
2021/01/26 02:13:08;;;;;;;25.75;11.05;;;;;;;4.46;75.94;99381.50;4936445;29;20039;-74
2021/01/26 02:15:34;;;;;;;24.02;16.77;;;;;;;4.19;76.31;99330.06;4951653;29;20024;-75
2021/01/26 02:18:32;;;;;;;46.47;37.03;;;;;;;4.56;76.20;99374.22;4936561;29;20521;-75
2021/01/26 02:21:25;;;;;;;26.65;14.10;;;;;;;4.49;75.88;99378.22;4936052;29;20024;-74
2021/01/26 02:23:59;;;;;;;21.48;9.00;;;;;;;4.37;75.49;99374.31;4936380;29;20529;-73
2021/01/26 02:26:46;;;;;;;12.85;7.07;;;;;;;4.18;76.54;99376.84;4936637;29;20125;-73
2021/01/26 02:29:21;;;;;;;11.73;7.47;;;;;;;3.82;75.67;99290.13;4936084;29;20035;-70
2021/01/26 02:32:07;;;;;;;15.63;8.07;;;;;;;4.27;76.20;99354.25;4936350;29;20032;-75
2021/01/26 02:34:53;;;;;;;12.65;7.13;;;;;;;4.30;75.39;99339.06;4936779;29;20036;-73
2021/01/26 02:38:16;;;;;;;37.25;11.52;;;;;;;4.21;75.18;99341.22;4945637;28;20043;-71
2021/01/26 02:40:52;;;;;;;46.47;23.27;;;;;;;4.16;75.58;99341.03;4953050;29;20274;-69
2021/01/26 02:43:31;;;;;;;16.75;10.25;;;;;;;4.01;75.77;99346.31;4952886;29;20477;-70
2021/01/26 02:46:28;;;;;;;14.90;7.75;;;;;;;3.86;76.29;99340.50;4952695;29;20054;-70
2021/01/26 02:49:16;;;;;;;20.17;10.23;;;;;;;3.81;76.56;99341.97;4952883;29;20089;-72
2021/01/26 02:51:51;;;;;;;107.00;36.57;;;;;;;3.75;76.85;99342.59;4952613;29;20038;-73
2021/01/26 02:54:40;;;;;;;84.90;31.93;;;;;;;3.75;78.19;99347.69;4952180;28;20031;-73
2021/01/26 02:57:13;;;;;;;158.00;53.93;;;;;;;3.92;77.80;99340.78;4952523;29;20035;-73
2021/01/26 02:59:46;;;;;;;316.70;108.88;;;;;;;4.08;77.17;99342.34;4952786;29;20449;-70
2021/01/26 03:02:27;;;;;;;45.38;19.20;;;;;;;4.18;76.86;99341.09;4933267;29;20179;-73
2021/01/26 03:05:07;;;;;;;31.42;10.18;;;;;;;4.21;76.15;99351.41;4945373;29;20051;-70
2021/01/26 03:07:42;;;;;;;23.85;12.93;;;;;;;4.25;75.87;99340.56;4952380;28;20457;-70
2021/01/26 03:10:13;;;;;;;54.28;22.92;;;;;;;4.32;75.61;99336.56;4951197;28;20046;-75
2021/01/26 03:12:42;;;;;;;21.42;11.23;;;;;;;4.02;75.30;99296.09;4933282;29;20063;-77
2021/01/26 03:15:12;;;;;;;11.47;7.93;;;;;;;3.94;74.95;99294.88;4932945;29;20047;-70
2021/01/26 03:17:47;;;;;;;13.33;6.80;;;;;;;4.01;74.71;99332.66;4933138;29;20271;-74
2021/01/26 03:20:22;;;;;;;10.77;7.50;;;;;;;3.98;74.88;99332.53;4933138;29;20042;-73
2021/01/26 03:22:51;;;;;;;12.60;6.40;;;;;;;3.67;76.29;99332.00;4933090;29;20043;-70
2021/01/26 03:25:20;;;;;;;9.50;6.55;;;;;;;3.78;75.84;99321.44;4933144;29;20038;-70
2021/01/26 03:27:47;;;;;;;15.77;8.73;;;;;;;3.88;75.39;99324.44;4932879;29;20043;-73
2021/01/26 03:30:18;;;;;;;12.53;6.43;;;;;;;3.72;75.71;99327.13;4932987;29;20028;-75
2021/01/26 03:32:49;;;;;;;9.13;6.07;;;;;;;3.71;75.93;99325.38;4932876;29;20163;-73
2021/01/26 03:35:16;;;;;;;19.00;7.03;;;;;;;3.78;76.06;99327.41;4934957;29;20459;-72
2021/01/26 03:37:48;;;;;;;26.17;11.43;;;;;;;3.75;76.25;99319.63;4935033;29;20040;-70
2021/01/26 03:40:13;;;;;;;17.87;8.80;;;;;;;3.85;75.49;99326.88;4934803;29;20102;-71
2021/01/26 03:42:42;;;;;;;13.60;7.47;;;;;;;3.77;75.43;99342.66;4931465;29;20110;-75
2021/01/26 03:45:08;;;;;;;19.60;9.03;;;;;;;3.50;76.32;99335.44;4934832;29;20027;-70
2021/01/26 03:48:21;;;;;;;20.43;10.07;;;;;;;3.23;76.81;99341.00;4934952;29;20032;-70
2021/01/26 03:51:01;;;;;;;46.07;18.57;;;;;;;3.17;77.15;99341.56;4934986;29;20024;-72
2021/01/26 03:53:51;;;;;;;22.60;12.23;;;;;;;3.24;77.21;99323.22;4934913;29;20023;-72
2021/01/26 03:56:23;;;;;;;66.20;26.00;;;;;;;3.35;76.62;99333.06;4934764;29;20039;-73
2021/01/26 03:58:54;;;;;;;18.87;9.43;;;;;;;3.39;75.93;99317.97;4934175;29;20023;-72
2021/01/26 04:01:46;;;;;;;48.50;24.10;;;;;;;2.86;76.88;99247.44;4934497;29;20043;-69
2021/01/26 04:04:21;;;;;;;65.43;39.40;;;;;;;3.23;76.77;99307.84;4935931;28;20429;-70
2021/01/26 04:06:58;;;;;;;19.37;10.70;;;;;;;3.23;76.61;99333.34;4934149;29;20038;-72
2021/01/26 04:09:31;;;;;;;10.33;7.03;;;;;;;3.04;77.02;99324.81;4934025;29;20023;-73
2021/01/26 04:12:10;;;;;;;11.40;7.70;;;;;;;3.15;76.97;99334.66;4934476;29;20034;-69
2021/01/26 04:14:43;;;;;;;11.82;6.63;;;;;;;3.16;76.96;99338.97;4934378;29;20035;-70
2021/01/26 04:17:18;;;;;;;10.40;6.90;;;;;;;3.02;77.30;99338.31;4934634;29;20031;-71
2021/01/26 04:19:54;;;;;;;14.63;7.57;;;;;;;3.17;77.48;99340.72;4933915;29;20509;-74
2021/01/26 04:22:20;;;;;;;12.43;7.90;;;;;;;3.23;77.54;99331.66;4934243;29;20410;-70
2021/01/26 04:24:45;;;;;;;98.37;32.27;;;;;;;3.07;76.46;99319.00;4934399;29;20024;-71
2021/01/26 04:27:17;;;;;;;175.60;49.97;;;;;;;3.30;76.87;99347.28;4934539;29;20038;-73
2021/01/26 04:29:42;;;;;;;118.77;34.50;;;;;;;3.11;76.63;99330.22;4948984;29;20090;-71
2021/01/26 04:32:08;;;;;;;16.43;10.43;;;;;;;3.21;76.78;99365.56;4933946;29;20032;-71
2021/01/26 04:34:33;;;;;;;12.33;7.60;;;;;;;3.00;77.30;99358.59;4934223;29;20035;-70
2021/01/26 04:36:59;;;;;;;16.93;8.43;;;;;;;2.73;77.13;99305.47;4934466;29;20471;-72
2021/01/26 04:39:24;;;;;;;13.23;7.93;;;;;;;2.62;77.11;99286.22;4934051;29;20047;-71
2021/01/26 04:41:55;;;;;;;174.17;52.27;;;;;;;3.15;76.74;99357.59;4934227;29;20079;-73
2021/01/26 04:44:58;;;;;;;152.27;48.80;;;;;;;3.34;76.38;99364.47;4948837;29;20095;-73
2021/01/26 04:47:28;;;;;;;219.00;71.17;;;;;;;3.21;76.32;99317.09;4934369;29;20027;-72
2021/01/26 04:50:05;;;;;;;22.42;12.23;;;;;;;3.48;77.61;99365.16;4934059;29;20031;-72
2021/01/26 04:53:04;;;;;;;20.80;9.10;;;;;;;3.50;77.80;99364.41;4924116;29;20063;-74
2021/01/26 04:55:41;;;;;;;25.20;12.65;;;;;;;3.62;76.09;99361.53;4934195;29;20058;-71
2021/01/26 04:58:25;;;;;;;29.30;19.87;;;;;;;3.76;77.17;99357.06;4924741;29;20119;-74
2021/01/26 05:01:12;;;;;;;17.47;9.40;;;;;;;3.73;77.85;99357.81;4933797;29;20043;-73
2021/01/26 05:03:56;;;;;;;15.93;9.13;;;;;;;3.78;78.39;99357.16;4933469;29;20028;-71
2021/01/26 05:06:26;;;;;;;16.10;11.83;;;;;;;3.88;77.72;99364.44;4934071;29;20031;-71
2021/01/26 05:08:55;;;;;;;11.23;7.07;;;;;;;3.86;77.65;99355.81;4933547;29;20024;-72
2021/01/26 05:11:27;;;;;;;14.52;7.30;;;;;;;3.83;75.84;99356.56;4929917;29;20024;-79
2021/01/26 05:14:08;;;;;;;15.17;8.27;;;;;;;3.56;76.67;99345.94;4942369;29;20028;-71
2021/01/26 05:16:39;;;;;;;28.73;11.43;;;;;;;3.54;76.23;99357.78;4934531;29;20039;-70
2021/01/26 05:19:20;;;;;;;21.93;9.97;;;;;;;3.58;76.95;99368.97;4930785;29;20115;-70
2021/01/26 05:22:12;;;;;;;10.47;6.50;;;;;;;3.61;76.43;99364.91;4937455;29;20038;-71
2021/01/26 05:24:50;;;;;;;9.17;5.83;;;;;;;3.70;76.86;99364.44;4937771;29;20024;-73
2021/01/26 05:27:16;;;;;;;11.80;5.87;;;;;;;3.61;77.19;99359.78;4933164;29;20040;-74
2021/01/26 05:29:42;;;;;;;11.17;6.47;;;;;;;3.32;78.40;99374.59;4935850;29;20039;-71
2021/01/26 05:32:10;;;;;;;106.50;36.50;;;;;;;3.35;78.55;99359.47;4937199;28;20031;-76
2021/01/26 05:34:38;;;;;;;15.93;7.67;;;;;;;2.97;78.39;99307.47;4937150;29;20035;-73
2021/01/26 05:37:22;;;;;;;25.03;10.17;;;;;;;3.50;77.78;99378.81;4937653;29;20039;-70
2021/01/26 05:39:54;;;;;;;122.43;39.27;;;;;;;3.44;77.65;99376.88;4937310;29;20063;-74
2021/01/26 05:42:23;;;;;;;20.63;10.23;;;;;;;3.23;77.37;99346.13;4937280;29;20027;-71
2021/01/26 05:44:56;;;;;;;158.75;65.95;;;;;;;3.38;76.70;99380.00;4937239;29;20027;-75
2021/01/26 05:47:28;;;;;;;29.87;22.53;;;;;;;3.24;76.29;99368.28;4935855;29;20019;-74
2021/01/26 05:49:54;;;;;;;17.43;7.20;;;;;;;3.15;76.93;99367.81;4936986;29;20036;-72
2021/01/26 05:52:22;;;;;;;14.70;10.37;;;;;;;3.13;77.04;99374.50;4937294;29;20036;-76
2021/01/26 05:54:53;;;;;;;11.20;6.23;;;;;;;3.00;77.34;99361.16;4936925;29;20498;-71
2021/01/26 05:57:34;;;;;;;17.27;7.63;;;;;;;3.12;77.01;99360.03;4937220;29;20034;-72
2021/01/26 06:00:14;;;;;;;16.37;9.20;;;;;;;3.04;77.89;99364.72;4937097;29;20478;-74
2021/01/26 06:02:40;;;;;;;12.00;7.00;;;;;;;3.08;76.99;99364.97;4936670;29;20114;-71
2021/01/26 06:05:16;;;;;;;11.07;6.20;;;;;;;3.08;77.30;99369.19;4937391;29;20042;-76
2021/01/26 06:07:42;;;;;;;17.23;7.97;;;;;;;2.91;77.78;99370.91;4936995;29;20028;-71
2021/01/26 06:10:20;;;;;;;11.93;6.57;;;;;;;2.79;78.04;99367.75;4936917;29;20066;-75
2021/01/26 06:12:56;;;;;;;42.13;17.90;;;;;;;2.77;78.45;99374.44;4950478;29;20066;-72
2021/01/26 06:15:28;;;;;;;15.70;8.17;;;;;;;2.81;78.87;99364.47;4936666;29;20028;-71
2021/01/26 06:18:08;;;;;;;11.60;6.80;;;;;;;2.95;78.38;99365.16;4936722;29;20478;-72
2021/01/26 06:20:35;;;;;;;16.17;6.90;;;;;;;2.99;78.39;99361.97;4936537;29;20032;-71
2021/01/26 06:23:19;;;;;;;17.10;10.70;;;;;;;3.01;78.13;99351.84;4936558;29;20047;-72
2021/01/26 06:25:55;;;;;;;20.53;10.83;;;;;;;3.15;78.14;99368.66;4936988;29;20035;-72
2021/01/26 06:29:12;;;;;;;56.10;24.10;;;;;;;3.26;77.94;99366.66;4935927;29;20039;-75
2021/01/26 06:31:50;;;;;;;43.80;20.83;;;;;;;3.34;77.67;99365.34;4972451;28;20180;-74
2021/01/26 06:34:44;;;;;;;60.10;23.80;;;;;;;3.40;77.50;99358.00;4972586;28;20043;-74
2021/01/26 06:37:12;;;;;;;39.30;16.67;;;;;;;3.51;77.74;99353.38;4972090;28;20092;-73
2021/01/26 06:40:10;;;;;;;15.57;8.53;;;;;;;3.56;78.82;99357.06;4955933;28;20086;-74
2021/01/26 06:42:47;;;;;;;14.33;7.37;;;;;;;3.96;78.36;99352.91;4972588;28;20070;-71
2021/01/26 06:45:24;;;;;;;31.47;14.20;;;;;;;4.20;77.47;99370.13;4972303;28;20030;-71
2021/01/26 06:47:53;;;;;;;24.50;11.93;;;;;;;4.35;77.24;99367.38;4972131;28;20137;-74
2021/01/26 06:50:39;;;;;;;20.90;10.48;;;;;;;4.51;77.31;99374.00;4972252;28;20095;-74
2021/01/26 06:53:38;;;;;;;16.60;8.05;;;;;;;4.61;77.61;99365.97;4955986;28;20031;-72
2021/01/26 06:56:31;;;;;;;21.17;12.43;;;;;;;4.83;77.44;99356.63;4952725;29;20038;-73
2021/01/26 06:59:15;;;;;;;14.30;9.65;;;;;;;4.94;77.28;99355.38;4953137;29;20059;-70
2021/01/26 07:01:52;;;;;;;16.67;9.95;;;;;;;5.06;76.72;99347.38;4952445;29;20043;-71
2021/01/26 07:04:41;;;;;;;25.55;8.82;;;;;;;5.17;76.66;99346.09;4952170;29;20449;-74
2021/01/26 07:07:34;;;;;;;19.00;7.73;;;;;;;5.15;76.27;99341.75;4912136;29;20134;-71
2021/01/26 07:10:02;;;;;;;18.52;8.52;;;;;;;5.26;75.81;99342.16;4933581;29;20279;-71
2021/01/26 07:12:27;;;;;;;13.93;8.57;;;;;;;5.39;76.35;99351.22;4933221;29;20114;-76
2021/01/26 07:15:14;;;;;;;31.00;13.32;;;;;;;5.50;76.70;99344.81;4933196;29;20590;-74
2021/01/26 07:18:01;;;;;;;22.60;10.00;;;;;;;5.53;75.83;99344.94;4933266;29;20050;-73
2021/01/26 07:20:44;;;;;;;34.22;13.52;;;;;;;5.57;75.97;99335.69;4929389;29;20059;-74
2021/01/26 07:23:33;;;;;;;170.70;62.90;;;;;;;5.39;76.06;99306.00;4932972;29;20066;-74
2021/01/26 07:26:24;;;;;;;144.55;55.30;;;;;;;5.71;76.54;99338.75;4928555;29;20038;-74
2021/01/26 07:29:16;;;;;;;27.00;12.68;;;;;;;5.75;75.73;99338.09;4931231;29;20056;-74
2021/01/26 07:31:50;;;;;;;13.40;6.78;;;;;;;5.98;75.21;99336.38;4933099;29;20035;-71
2021/01/26 07:34:37;;;;;;;16.20;6.18;;;;;;;6.25;73.73;99330.56;4935355;29;20022;-71
2021/01/26 07:37:16;;;;;;;39.67;17.77;;;;;;;6.36;73.75;99313.00;4935156;28;20043;-71
2021/01/26 07:39:50;;;;;;;19.42;9.15;;;;;;;6.65;72.27;99329.38;4934581;29;20052;-71
2021/01/26 07:42:28;;;;;;;12.05;6.57;;;;;;;6.78;72.57;99323.00;4933736;29;20519;-71
2021/01/26 07:45:14;;;;;;;12.80;4.00;;;;;;;7.02;72.58;99329.75;4933776;29;20450;-71
2021/01/26 07:48:04;;;;;;;9.50;2.97;;;;;;;7.41;71.65;99321.56;4934914;29;20535;-72
2021/01/26 07:50:32;;;;;;;7.30;3.10;;;;;;;7.19;70.97;99248.13;4935091;29;20409;-71
2021/01/26 07:53:03;;;;;;;9.13;2.55;;;;;;;7.48;70.17;99272.16;4934759;29;20038;-71
2021/01/26 07:55:35;;;;;;;7.90;2.55;;;;;;;7.87;69.44;99293.81;4935189;29;20030;-77
2021/01/26 07:58:06;;;;;;;10.18;2.50;;;;;;;8.20;67.92;99306.75;4934793;29;20406;-75
2021/01/26 08:00:35;;;;;;;5.65;1.70;;;;;;;8.38;67.63;99300.38;4934524;29;20119;-71
2021/01/26 08:03:02;;;;;;;5.75;1.42;;;;;;;8.55;67.54;99288.00;4934673;29;20107;-77
2021/01/26 08:05:46;;;;;;;6.07;1.83;;;;;;;8.34;67.94;99263.41;4934556;29;20027;-71
2021/01/26 08:08:29;;;;;;;7.78;1.70;;;;;;;8.71;66.98;99304.66;4934682;29;20504;-70
2021/01/26 08:11:08;;;;;;;5.60;1.70;;;;;;;8.79;67.05;99305.75;4934164;29;20448;-74
2021/01/26 08:13:35;;;;;;;9.93;2.40;;;;;;;8.87;66.73;99300.78;4934849;29;20111;-74
2021/01/26 08:16:19;;;;;;;5.93;2.20;;;;;;;8.99;65.51;99295.09;4934519;29;20043;-73
2021/01/26 08:18:45;;;;;;;5.65;2.05;;;;;;;8.95;65.31;99283.84;4934719;29;20083;-72
2021/01/26 08:21:43;;;;;;;8.23;1.80;;;;;;;9.04;66.29;99304.66;4934136;29;20032;-73
2021/01/26 08:24:20;;;;;;;4.78;1.92;;;;;;;9.08;65.87;99308.16;4934263;29;20024;-74
2021/01/26 08:26:47;;;;;;;6.10;2.45;;;;;;;8.82;66.36;99267.25;4934403;29;20031;-73
2021/01/26 08:29:51;;;;;;;8.98;2.30;;;;;;;9.04;67.04;99306.38;4934369;29;20027;-74
2021/01/26 08:32:22;;;;;;;4.25;2.03;;;;;;;9.02;67.82;99296.03;4934661;29;20402;-73
2021/01/26 08:35:02;;;;;;;11.82;2.42;;;;;;;9.01;68.28;99303.69;4934438;29;20023;-73
2021/01/26 08:37:43;;;;;;;8.70;2.00;;;;;;;9.00;69.04;99292.53;4932215;29;20175;-71
2021/01/26 08:40:21;;;;;;;5.70;1.77;;;;;;;8.96;69.83;99305.28;4933551;29;20509;-73
2021/01/26 08:42:50;;;;;;;7.43;2.25;;;;;;;9.07;69.03;99314.16;4931006;29;20038;-76
2021/01/26 08:45:24;;;;;;;8.00;2.35;;;;;;;9.08;68.32;99315.88;4934586;29;20039;-71
2021/01/26 08:47:56;;;;;;;4.78;2.05;;;;;;;9.06;68.70;99312.44;4934422;29;20032;-73
2021/01/26 08:50:32;;;;;;;7.25;2.42;;;;;;;9.11;68.58;99315.09;4934747;29;20074;-74
2021/01/26 08:53:20;;;;;;;7.25;2.40;;;;;;;9.13;68.73;99306.56;4934226;29;20073;-73
2021/01/26 08:55:48;;;;;;;5.38;2.10;;;;;;;9.08;69.30;99292.72;4934499;29;20034;-74
2021/01/26 08:58:38;;;;;;;13.48;3.42;;;;;;;9.20;68.74;99289.59;4934356;29;20057;-75
2021/01/26 09:01:06;;;;;;;14.38;3.60;;;;;;;9.22;68.78;99288.78;4934404;29;20040;-73
2021/01/26 09:03:43;;;;;;;25.30;9.65;;;;;;;9.18;69.34;99289.56;4948956;29;20034;-70
2021/01/26 09:06:12;;;;;;;8.57;3.67;;;;;;;9.25;69.01;99292.28;4932407;29;20059;-74
2021/01/26 09:08:40;;;;;;;14.20;4.40;;;;;;;9.31;68.86;99289.81;4934120;29;20031;-70
2021/01/26 09:11:20;;;;;;;12.43;3.13;;;;;;;9.26;68.70;99278.53;4934180;29;20031;-71
2021/01/26 09:13:47;;;;;;;6.63;1.80;;;;;;;9.16;68.76;99254.28;4934498;29;20039;-72
2021/01/26 09:16:25;;;;;;;9.18;1.80;;;;;;;9.37;68.03;99284.78;4934422;29;20031;-75
2021/01/26 09:18:57;;;;;;;10.63;2.42;;;;;;;9.41;67.42;99281.47;4934186;29;20110;-74
2021/01/26 09:21:25;;;;;;;8.27;2.30;;;;;;;9.39;67.30;99290.88;4933083;29;20028;-75
2021/01/26 09:23:54;;;;;;;9.73;3.70;;;;;;;9.53;66.52;99304.03;4933822;29;20093;-73
2021/01/26 09:26:20;;;;;;;;;;;;;;;9.50;66.92;99301.41;4934687;29;20031;-73
2021/01/26 09:28:50;;;;;;;8.25;2.10;;;;;;;9.33;65.77;99286.47;4934382;29;19922;-74
2021/01/26 09:31:19;;;;;;;8.82;2.40;;;;;;;9.39;67.15;99285.72;4934196;29;20035;-72
2021/01/26 09:33:45;;;;;;;5.53;1.92;;;;;;;9.48;67.46;99282.47;4949148;29;20498;-73
2021/01/26 09:36:15;;;;;;;9.00;1.88;;;;;;;9.38;66.58;99247.91;4934239;29;20074;-75
2021/01/26 09:38:45;;;;;;;;;;;;;;;9.75;68.49;99289.94;4934782;29;20067;-74
2021/01/26 09:41:16;;;;;;;;;;;;;;;9.67;68.80;99278.56;4934919;29;19926;-74
2021/01/26 09:43:44;;;;;;;20.48;8.98;;;;;;;9.52;69.97;99272.28;4934226;29;19922;-74
2021/01/26 09:46:28;;;;;;;22.70;11.52;;;;;;;9.38;70.78;99271.09;4934157;29;20110;-76
2021/01/26 09:48:57;;;;;;;35.53;17.40;;;;;;;9.17;70.26;99218.28;4934107;29;20028;-77
2021/01/26 09:51:37;;;;;;;49.30;22.95;;;;;;;9.40;70.84;99256.53;4938850;29;20031;-76
2021/01/26 09:54:12;;;;;;;16.60;6.07;;;;;;;9.42;69.99;99246.28;4952667;29;20028;-77
2021/01/26 09:56:38;;;;;;;20.50;7.03;;;;;;;9.46;70.79;99250.63;4952565;28;20490;-78
2021/01/26 09:59:08;;;;;;;17.48;8.85;;;;;;;9.47;71.74;99257.53;4953064;28;20034;-75
2021/01/26 10:01:34;;;;;;;21.20;14.27;;;;;;;9.52;71.02;99250.78;4953361;28;20386;-76
2021/01/26 10:04:03;;;;;;;21.15;12.85;;;;;;;9.51;71.28;99252.50;4954477;28;20032;-77
2021/01/26 10:06:29;;;;;;;18.35;10.30;;;;;;;9.51;72.07;99249.91;4956590;28;20023;-76
2021/01/26 10:08:55;;;;;;;15.07;6.88;;;;;;;9.52;71.52;99256.81;4950964;28;20118;-78
2021/01/26 10:11:29;;;;;;;13.23;5.45;;;;;;;9.33;71.58;99219.50;4937334;29;20026;-77
2021/01/26 10:14:15;;;;;;;15.77;6.30;;;;;;;9.59;73.38;99254.38;4937306;28;20550;-80
2021/01/26 10:16:42;;;;;;;16.02;5.97;;;;;;;9.61;72.59;99252.69;4937620;29;20027;-76
2021/01/26 10:19:20;;;;;;;17.02;5.53;;;;;;;9.65;71.81;99241.63;4937265;29;20038;-80
2021/01/26 10:21:45;;;;;;;21.48;7.15;;;;;;;9.60;72.39;99243.22;4936376;29;20028;-76
2021/01/26 10:24:21;;;;;;;19.83;7.70;;;;;;;9.62;71.46;99242.44;4936888;29;20391;-77
2021/01/26 10:26:48;;;;;;;20.70;9.50;;;;;;;9.62;73.04;99231.22;4937447;29;20083;-76
2021/01/26 10:29:18;;;;;;;22.77;13.20;;;;;;;9.55;74.06;99236.25;4937273;29;20054;-79
2021/01/26 10:31:47;;;;;;;22.13;8.40;;;;;;;9.53;74.63;99230.22;4937049;29;20036;-77
2021/01/26 10:34:38;;;;;;;17.30;7.07;;;;;;;9.42;74.58;99230.81;4937284;29;20115;-76
2021/01/26 10:37:11;;;;;;;27.27;13.93;;;;;;;9.31;74.23;99228.88;4953910;29;20067;-76
2021/01/26 10:39:37;;;;;;;20.85;11.00;;;;;;;9.19;75.05;99229.47;4953713;29;20062;-75
2021/01/26 10:42:10;;;;;;;24.10;11.27;;;;;;;9.07;75.19;99218.88;4953750;29;20051;-78
2021/01/26 10:44:44;;;;;;;25.40;9.98;;;;;;;9.06;75.32;99227.47;4953843;29;20031;-75
2021/01/26 10:47:22;;;;;;;54.90;21.70;;;;;;;8.81;75.35;99177.09;4953353;29;20130;-76
2021/01/26 10:49:59;;;;;;;30.00;11.35;;;;;;;8.89;76.78;99214.19;4953556;29;20038;-75
2021/01/26 10:52:53;;;;;;;40.25;22.38;;;;;;;8.86;78.11;99211.53;4961098;29;20059;-84
2021/01/26 10:55:22;;;;;;;19.50;16.38;;;;;;;8.77;78.85;99209.63;4862069;29;20049;-80
2021/01/26 10:57:50;;;;;;;14.07;9.18;;;;;;;8.77;79.24;99196.75;4877744;29;20048;-76
2021/01/26 11:00:28;;;;;;;8.60;5.32;;;;;;;8.67;78.91;99205.09;4880800;29;20052;-70
2021/01/26 11:02:55;;;;;;;9.38;4.88;;;;;;;8.56;79.68;99197.09;4894711;29;20129;-70
2021/01/26 11:05:23;;;;;;;8.07;4.20;;;;;;;8.53;79.83;99190.19;4892784;29;20123;-69
2021/01/26 11:07:49;;;;;;;12.60;4.78;;;;;;;8.61;79.62;99203.25;4893320;29;20044;-73
2021/01/26 11:10:16;;;;;;;10.13;5.75;;;;;;;8.56;80.22;99203.13;4892522;29;20036;-72
2021/01/26 11:12:42;;;;;;;36.08;9.50;;;;;;;8.61;80.92;99200.69;4891118;29;20036;-71
2021/01/26 11:15:15;;;;;;;14.52;5.82;;;;;;;8.65;81.01;99206.75;4862019;29;20038;-68
2021/01/26 11:17:41;;;;;;;56.95;14.88;;;;;;;8.47;81.63;99190.03;4853933;29;20037;-70
2021/01/26 11:20:08;;;;;;;51.75;20.38;;;;;;;8.37;82.66;99186.34;4841280;29;20086;-71
2021/01/26 11:22:35;;;;;;;69.32;25.38;;;;;;;8.20;82.55;99172.19;4840366;29;20513;-71
2021/01/26 11:25:04;;;;;;;38.33;15.95;;;;;;;8.21;82.91;99164.53;4841165;29;20124;-70
2021/01/26 11:27:29;;;;;;;19.77;9.33;;;;;;;8.54;82.32;99204.78;4857263;29;20033;-69
2021/01/26 11:29:55;;;;;;;13.48;7.13;;;;;;;8.64;82.35;99199.88;4857331;29;20262;-72
2021/01/26 11:32:20;;;;;;;36.47;14.60;;;;;;;8.67;81.73;99205.09;4916329;29;20450;-72
2021/01/26 11:34:46;;;;;;;103.55;44.35;;;;;;;8.69;80.86;99206.88;4934309;29;20367;-74
2021/01/26 11:37:12;;;;;;;55.20;20.30;;;;;;;8.68;80.38;99201.69;4934402;29;20036;-74
2021/01/26 11:39:39;;;;;;;102.10;39.65;;;;;;;8.47;81.06;99179.75;4934622;29;20052;-71
2021/01/26 11:42:05;;;;;;;23.88;12.52;;;;;;;8.65;81.80;99196.47;4933961;28;20031;-73
2021/01/26 11:44:30;;;;;;;41.50;25.00;;;;;;;8.57;82.49;99210.03;4934484;28;20422;-73
2021/01/26 11:46:56;;;;;;;17.85;9.82;;;;;;;8.35;83.21;99176.84;4934097;29;20028;-72
2021/01/26 11:49:21;;;;;;;18.13;12.70;;;;;;;8.37;83.01;99190.63;4919931;29;20467;-74
2021/01/26 11:51:47;;;;;;;25.05;15.85;;;;;;;8.39;83.47;99200.09;4926419;29;20047;-71
2021/01/26 11:54:12;;;;;;;46.63;30.27;;;;;;;8.30;84.49;99199.00;4932596;29;20031;-71
2021/01/26 11:56:37;;;;;;;16.80;7.72;;;;;;;8.26;84.92;99191.22;4934143;29;20093;-70
2021/01/26 11:59:03;;;;;;;19.58;12.27;;;;;;;8.18;85.63;99191.84;4934321;29;20159;-70
2021/01/26 12:01:29;;;;;;;22.73;14.27;;;;;;;8.17;85.16;99192.69;4933802;29;20055;-69